Time;durP1;ratioP1;P1;durP2;ratioP2;P2;SDS_P1;SDS_P2;PMS_P1;PMS_P2;Temp;Humidity;BMP_temperature;BMP_pressure;BME280_temperature;BME280_humidity;BME280_pressure;Samples;Min_cycle;Max_cycle;Signal;HPM_P1;HPM_P2
2021/12/27 00:00:21;;;;;;;28.30;3.70;;;-1.90;99.90;;;;;;5045572;28;20095;-72
2021/12/27 00:02:50;;;;;;;6.68;2.53;;;-1.90;99.90;;;;;;5045962;28;20025;-70
2021/12/27 00:05:15;;;;;;;6.60;2.50;;;-2.00;99.90;;;;;;5045901;28;20112;-72
2021/12/27 00:07:43;;;;;;;6.38;2.55;;;-2.00;99.90;;;;;;5045100;28;20022;-71
2021/12/27 00:10:10;;;;;;;7.25;2.72;;;-2.00;99.90;;;;;;5044205;28;20025;-71
2021/12/27 00:12:36;;;;;;;5.38;2.63;;;-1.90;99.90;;;;;;5045749;28;20105;-71
2021/12/27 00:15:02;;;;;;;6.32;2.50;;;-1.90;99.90;;;;;;5045233;28;20029;-72
2021/12/27 00:17:28;;;;;;;5.20;2.50;;;-1.90;99.90;;;;;;5044093;28;20028;-72
2021/12/27 00:19:56;;;;;;;8.65;3.75;;;-1.90;99.90;;;;;;5045861;28;20061;-72
2021/12/27 00:22:30;;;;;;;9.38;2.25;;;-1.90;99.90;;;;;;5045116;28;20490;-73
2021/12/27 00:24:56;;;;;;;9.93;3.13;;;-1.90;99.90;;;;;;5045894;28;20085;-71
2021/12/27 00:27:21;;;;;;;5.80;2.40;;;-1.80;99.90;;;;;;5045534;28;20037;-70
2021/12/27 00:29:47;;;;;;;11.18;2.63;;;-1.80;99.90;;;;;;5044638;28;20041;-71
2021/12/27 00:32:13;;;;;;;11.52;2.75;;;-1.80;99.90;;;;;;5043534;28;20034;-72
2021/12/27 00:34:38;;;;;;;5.10;2.45;;;-1.80;99.90;;;;;;5045243;28;20034;-72
2021/12/27 00:37:06;;;;;;;5.85;2.92;;;-1.80;99.90;;;;;;5045158;28;20166;-70
2021/12/27 00:39:32;;;;;;;4.53;1.98;;;-1.80;99.90;;;;;;5043838;28;20232;-71
2021/12/27 00:41:59;;;;;;;8.80;2.40;;;-1.80;99.90;;;;;;5044941;28;20049;-72
2021/12/27 00:44:24;;;;;;;9.15;2.33;;;-1.80;99.90;;;;;;5045053;28;20033;-71
2021/12/27 00:46:51;;;;;;;3.90;2.05;;;-1.80;99.90;;;;;;5044834;28;20033;-73
2021/12/27 00:49:17;;;;;;;8.73;3.03;;;-1.80;99.90;;;;;;5043555;28;20057;-71
2021/12/27 00:51:42;;;;;;;6.63;2.30;;;-1.80;99.90;;;;;;5044917;28;20037;-71
2021/12/27 00:54:08;;;;;;;7.88;2.83;;;-1.70;99.90;;;;;;5045297;28;20029;-71
2021/12/27 00:56:34;;;;;;;5.80;2.08;;;-1.70;99.90;;;;;;5044645;28;20026;-70
2021/12/27 00:58:59;;;;;;;5.15;2.00;;;-1.70;99.90;;;;;;5044652;28;20440;-72
2021/12/27 01:01:26;;;;;;;5.22;2.33;;;-1.70;99.90;;;;;;5045036;28;20025;-71
2021/12/27 01:03:55;;;;;;;8.85;2.95;;;-1.70;99.90;;;;;;5044352;28;20029;-71
2021/12/27 01:06:21;;;;;;;8.40;2.40;;;-1.70;99.90;;;;;;5044978;28;20029;-72
2021/12/27 01:08:47;;;;;;;4.78;2.78;;;-1.70;99.90;;;;;;5044633;28;20057;-71
2021/12/27 01:11:25;;;;;;;6.22;2.35;;;-1.70;99.90;;;;;;5044488;28;20040;-72
2021/12/27 01:16:34;;;;;;;14.80;2.28;;;-1.70;99.90;;;;;;5044554;28;20052;-72
2021/12/27 01:19:00;;;;;;;5.18;2.55;;;-1.70;99.90;;;;;;5044701;28;20073;-72
2021/12/27 01:21:26;;;;;;;7.35;3.17;;;-1.70;99.90;;;;;;5044965;28;20473;-72
2021/12/27 01:23:54;;;;;;;11.02;2.30;;;-1.70;99.90;;;;;;5044572;28;20064;-71
2021/12/27 01:26:20;;;;;;;5.82;2.63;;;-1.70;99.90;;;;;;5044815;28;20018;-71
2021/12/27 01:28:47;;;;;;;5.60;2.17;;;-1.70;99.90;;;;;;5044510;28;20041;-73
2021/12/27 01:31:13;;;;;;;4.68;2.17;;;-1.70;99.90;;;;;;5044202;28;20026;-72
2021/12/27 01:33:39;;;;;;;3.75;2.17;;;-1.60;99.90;;;;;;5044617;28;20053;-72
2021/12/27 01:36:07;;;;;;;5.03;1.95;;;-1.70;99.90;;;;;;5044608;28;20025;-70
2021/12/27 01:38:37;;;;;;;7.07;2.60;;;-1.70;99.90;;;;;;5044415;28;20034;-71
2021/12/27 01:41:05;;;;;;;6.20;2.40;;;-1.70;99.90;;;;;;5044478;28;20032;-74
2021/12/27 01:43:35;;;;;;;7.35;2.50;;;-1.70;99.90;;;;;;5044460;28;20060;-71
2021/12/27 01:46:07;;;;;;;4.20;1.75;;;-1.70;99.90;;;;;;5043992;28;20025;-72
2021/12/27 01:48:37;;;;;;;6.38;2.20;;;-1.70;99.90;;;;;;5044359;28;20115;-72
2021/12/27 01:51:05;;;;;;;7.88;3.15;;;-1.70;99.90;;;;;;5044312;28;20096;-72
2021/12/27 01:53:32;;;;;;;7.38;2.20;;;-1.60;99.90;;;;;;5044572;28;20037;-72
2021/12/27 01:55:59;;;;;;;5.18;2.45;;;-1.60;99.90;;;;;;5044532;28;20032;-73
2021/12/27 01:58:26;;;;;;;7.07;2.88;;;-1.70;99.90;;;;;;5042993;28;20037;-73
2021/12/27 02:00:55;;;;;;;4.60;2.35;;;-1.70;99.90;;;;;;5043960;28;20584;-72
2021/12/27 02:03:24;;;;;;;7.38;2.55;;;-1.60;99.90;;;;;;5044355;28;20057;-72
2021/12/27 02:05:53;;;;;;;5.35;2.15;;;-1.70;99.90;;;;;;5043921;28;20033;-72
2021/12/27 02:08:19;;;;;;;9.95;2.70;;;-1.70;99.90;;;;;;5043786;28;20129;-71
2021/12/27 02:10:45;;;;;;;6.00;1.73;;;-1.80;99.90;;;;;;5044454;28;20032;-71
2021/12/27 02:13:11;;;;;;;5.25;2.38;;;-1.80;99.90;;;;;;5043575;28;20038;-71
2021/12/27 02:15:36;;;;;;;6.97;2.17;;;-1.80;99.90;;;;;;5044670;28;20096;-70
2021/12/27 02:18:03;;;;;;;5.70;2.80;;;-1.90;99.90;;;;;;5047826;28;20030;-71
2021/12/27 02:20:32;;;;;;;9.75;2.72;;;-1.90;99.90;;;;;;5046460;28;20071;-71
2021/12/27 02:23:02;;;;;;;4.45;2.35;;;-1.90;99.90;;;;;;5046726;28;20056;-71
2021/12/27 02:25:33;;;;;;;9.50;2.95;;;-1.90;99.90;;;;;;5047722;28;20071;-70
2021/12/27 02:28:01;;;;;;;10.10;2.30;;;-1.90;99.90;;;;;;5047203;28;20032;-73
2021/12/27 02:30:27;;;;;;;6.70;2.13;;;-1.80;99.90;;;;;;5047779;28;20033;-73
2021/12/27 02:32:58;;;;;;;8.63;3.03;;;-1.80;99.90;;;;;;5047535;28;20049;-71
2021/12/27 02:35:31;;;;;;;4.82;1.60;;;-1.80;99.90;;;;;;5047298;28;20444;-70
2021/12/27 02:37:59;;;;;;;8.50;3.17;;;-1.80;99.90;;;;;;5047753;28;20413;-71
2021/12/27 02:40:28;;;;;;;9.80;3.13;;;-1.80;99.90;;;;;;5047287;28;20030;-71
2021/12/27 02:43:18;;;;;;;6.30;3.08;;;-1.80;99.90;;;;;;5047477;28;20069;-70
2021/12/27 02:45:46;;;;;;;7.88;2.92;;;-1.80;99.90;;;;;;5047143;28;20071;-70
2021/12/27 02:48:13;;;;;;;4.07;2.20;;;-1.70;99.90;;;;;;5046761;28;20033;-71
2021/12/27 02:50:41;;;;;;;8.88;2.75;;;-1.70;99.90;;;;;;5047104;28;20030;-71
2021/12/27 02:53:07;;;;;;;8.18;2.85;;;-1.70;99.90;;;;;;5047079;28;20061;-71
2021/12/27 02:55:34;;;;;;;6.57;2.70;;;-1.70;99.90;;;;;;5046705;28;20037;-72
2021/12/27 02:58:00;;;;;;;8.52;2.83;;;-1.70;99.90;;;;;;5047104;28;20026;-71
2021/12/27 03:00:32;;;;;;;6.35;2.00;;;-1.60;99.90;;;;;;5047197;28;20026;-73
2021/12/27 03:03:00;;;;;;;9.65;2.88;;;-1.60;99.90;;;;;;5045534;28;20437;-70
2021/12/27 03:05:28;;;;;;;3.92;1.70;;;-1.60;99.90;;;;;;5047215;28;20089;-72
2021/12/27 03:07:55;;;;;;;10.68;3.47;;;-1.60;99.90;;;;;;5045378;28;20026;-71
2021/12/27 03:10:26;;;;;;;7.93;2.95;;;-1.70;99.90;;;;;;5046802;28;20061;-72
2021/12/27 03:12:54;;;;;;;7.55;2.80;;;-1.70;99.90;;;;;;5046915;28;20053;-71
2021/12/27 03:15:22;;;;;;;9.48;3.38;;;-1.70;99.90;;;;;;5046452;28;20021;-71
2021/12/27 03:17:49;;;;;;;6.25;2.50;;;-1.80;99.90;;;;;;5061699;28;20033;-72
2021/12/27 03:20:16;;;;;;;6.50;3.00;;;-1.80;99.90;;;;;;5046623;28;20053;-70
2021/12/27 03:22:43;;;;;;;10.95;2.85;;;-1.80;99.90;;;;;;5046311;28;20048;-72
2021/12/27 03:25:12;;;;;;;3.15;1.85;;;-1.80;99.90;;;;;;5046648;28;20072;-71
2021/12/27 03:27:38;;;;;;;10.30;2.85;;;-1.80;99.90;;;;;;5046590;28;20035;-71
2021/12/27 03:30:08;;;;;;;10.35;3.47;;;-1.80;99.90;;;;;;5045939;28;20040;-71
2021/12/27 03:32:36;;;;;;;4.32;2.15;;;-1.70;99.90;;;;;;5046396;28;20028;-70
2021/12/27 03:35:14;;;;;;;10.88;3.38;;;-1.70;99.90;;;;;;5046522;28;20032;-72
2021/12/27 03:37:46;;;;;;;6.82;3.03;;;-1.70;99.90;;;;;;5045944;28;20036;-71
2021/12/27 03:40:14;;;;;;;8.23;2.80;;;-1.60;99.90;;;;;;5046473;28;20107;-71
2021/12/27 03:42:40;;;;;;;9.23;3.47;;;-1.60;99.90;;;;;;5046039;28;20086;-71
2021/12/27 03:45:07;;;;;;;11.35;2.80;;;-1.60;99.90;;;;;;5061203;28;20061;-71
2021/12/27 03:47:33;;;;;;;5.30;3.20;;;-1.60;99.90;;;;;;5046321;28;20033;-70
2021/12/27 03:50:02;;;;;;;10.15;2.60;;;-1.60;99.90;;;;;;5046091;28;20033;-72
2021/12/27 03:52:27;;;;;;;9.50;3.65;;;-1.70;99.90;;;;;;5046093;28;20040;-72
2021/12/27 03:54:53;;;;;;;5.05;2.63;;;-1.70;99.90;;;;;;5046129;28;20034;-71
2021/12/27 03:57:19;;;;;;;7.97;3.13;;;-1.70;99.90;;;;;;5045674;28;20026;-71
2021/12/27 04:02:14;;;;;;;11.35;3.30;;;-1.70;99.90;;;;;;5045995;28;20029;-71
2021/12/27 04:04:42;;;;;;;7.57;2.75;;;-1.70;99.90;;;;;;5045529;28;20028;-70
2021/12/27 04:07:08;;;;;;;7.32;3.63;;;-1.80;99.90;;;;;;5045956;28;20028;-70
2021/12/27 04:09:35;;;;;;;5.30;2.42;;;-1.70;99.90;;;;;;5045474;28;20084;-72
2021/12/27 04:12:00;;;;;;;13.93;3.08;;;-1.70;99.90;;;;;;5045560;28;20404;-71
2021/12/27 04:14:26;;;;;;;10.43;3.85;;;-1.70;99.90;;;;;;5045979;28;20049;-73
2021/12/27 04:16:53;;;;;;;11.60;4.13;;;-1.60;99.90;;;;;;5045586;28;20029;-73
2021/12/27 04:19:19;;;;;;;12.50;3.40;;;-1.60;99.90;;;;;;5045190;28;20033;-71
2021/12/27 04:21:45;;;;;;;7.13;2.60;;;-1.50;99.90;;;;;;5045632;28;20045;-72
2021/12/27 04:24:10;;;;;;;6.97;3.10;;;-1.50;99.90;;;;;;5045645;28;20022;-71
2021/12/27 04:26:36;;;;;;;10.15;4.22;;;-1.50;99.90;;;;;;5060399;28;20025;-71
2021/12/27 04:29:03;;;;;;;8.73;3.03;;;-1.40;99.90;;;;;;5045320;28;20484;-72
2021/12/27 04:31:28;;;;;;;13.48;4.25;;;-1.50;99.90;;;;;;5045375;28;20033;-71
2021/12/27 04:33:54;;;;;;;12.88;4.00;;;-1.40;99.90;;;;;;5045148;28;20034;-71
2021/12/27 04:36:19;;;;;;;12.20;4.00;;;-1.50;99.90;;;;;;5045462;28;20571;-71
2021/12/27 04:38:45;;;;;;;9.32;3.28;;;-1.50;99.90;;;;;;5044792;28;20041;-70
2021/12/27 04:41:13;;;;;;;7.40;2.97;;;-1.50;99.90;;;;;;5044799;28;20021;-71
2021/12/27 04:43:40;;;;;;;7.85;2.67;;;-1.60;99.90;;;;;;5044465;28;20052;-70
2021/12/27 04:46:06;;;;;;;10.25;4.65;;;-1.60;99.90;;;;;;5044665;28;20026;-71
2021/12/27 04:48:32;;;;;;;9.13;3.72;;;-1.60;99.90;;;;;;5045014;28;20370;-71
2021/12/27 04:50:58;;;;;;;12.50;3.80;;;-1.60;99.90;;;;;;5045298;28;20098;-71
2021/12/27 04:53:24;;;;;;;15.27;3.63;;;-1.60;99.90;;;;;;5044906;28;20072;-70
2021/12/27 04:55:50;;;;;;;10.60;4.00;;;-1.60;99.90;;;;;;5044856;28;20136;-71
2021/12/27 04:58:18;;;;;;;10.32;2.70;;;-1.70;99.90;;;;;;5044876;28;20048;-71
2021/12/27 05:00:44;;;;;;;14.63;3.03;;;-1.70;99.90;;;;;;5044629;28;20029;-70
2021/12/27 05:03:10;;;;;;;6.80;3.15;;;-1.70;99.90;;;;;;5044822;28;20032;-70
2021/12/27 05:05:37;;;;;;;11.45;3.80;;;-1.80;99.90;;;;;;5044939;28;20033;-71
2021/12/27 05:08:03;;;;;;;15.82;4.45;;;-1.80;99.90;;;;;;5059242;28;20026;-71
2021/12/27 05:10:31;;;;;;;6.45;3.08;;;-1.90;99.90;;;;;;5044864;28;20033;-72
2021/12/27 05:12:57;;;;;;;12.82;4.85;;;-1.90;99.90;;;;;;5044917;28;20021;-72
2021/12/27 05:15:23;;;;;;;9.00;4.13;;;-1.90;99.90;;;;;;5044643;28;20083;-70
2021/12/27 05:17:49;;;;;;;11.30;4.13;;;-1.90;99.90;;;;;;5044598;28;20022;-70
2021/12/27 05:20:18;;;;;;;8.77;4.70;;;-1.90;99.90;;;;;;5044787;28;20049;-72
2021/12/27 05:22:43;;;;;;;11.18;3.88;;;-2.00;99.90;;;;;;5044267;28;20041;-71
2021/12/27 05:25:11;;;;;;;12.43;3.33;;;-2.00;99.90;;;;;;5042616;28;20036;-71
2021/12/27 05:27:40;;;;;;;11.05;4.10;;;-2.10;99.90;;;;;;5042205;28;20100;-71
2021/12/27 05:30:13;;;;;;;9.65;3.47;;;-2.10;99.90;;;;;;5044070;28;20022;-71
2021/12/27 05:32:40;;;;;;;8.98;3.15;;;-2.10;99.90;;;;;;5044185;28;20167;-72
2021/12/27 05:35:07;;;;;;;8.15;3.30;;;-2.20;99.90;;;;;;5044565;28;20037;-70
2021/12/27 05:37:33;;;;;;;11.80;3.83;;;-2.20;99.90;;;;;;5044100;28;20034;-71
2021/12/27 05:40:04;;;;;;;10.73;3.85;;;-2.20;99.90;;;;;;5044490;28;20052;-70
2021/12/27 05:42:34;;;;;;;10.75;3.90;;;-2.30;99.90;;;;;;5044552;28;20049;-71
2021/12/27 05:45:02;;;;;;;9.68;4.47;;;-2.30;99.90;;;;;;5044316;28;20022;-71
2021/12/27 05:47:28;;;;;;;7.13;3.97;;;-2.40;99.90;;;;;;5044538;28;20120;-71
2021/12/27 05:49:53;;;;;;;12.23;4.13;;;-2.40;99.90;;;;;;5044387;28;20026;-71
2021/12/27 05:52:22;;;;;;;7.47;3.17;;;-2.40;99.90;;;;;;5046153;28;20486;-71
2021/12/27 05:54:47;;;;;;;11.02;4.22;;;-2.40;99.90;;;;;;5048358;28;20036;-71
2021/12/27 05:57:13;;;;;;;12.02;4.38;;;-2.40;99.90;;;;;;5047871;28;20081;-70
2021/12/27 05:59:39;;;;;;;7.95;2.97;;;-2.50;99.90;;;;;;5048179;28;20087;-70
2021/12/27 06:02:04;;;;;;;10.65;4.22;;;-2.50;99.90;;;;;;5048157;28;20030;-69
2021/12/27 06:04:30;;;;;;;12.25;4.82;;;-2.50;99.90;;;;;;5046413;28;20025;-71
2021/12/27 06:06:56;;;;;;;12.00;4.88;;;-2.60;99.90;;;;;;5048513;28;20033;-70
2021/12/27 06:09:28;;;;;;;19.83;4.82;;;-2.60;99.90;;;;;;5047473;28;20050;-71
2021/12/27 06:11:53;;;;;;;17.88;4.85;;;-2.60;99.90;;;;;;5047791;28;20026;-69
2021/12/27 06:14:19;;;;;;;10.90;4.65;;;-2.50;99.90;;;;;;5047914;28;20018;-70
2021/12/27 06:16:44;;;;;;;16.05;5.18;;;-2.60;99.90;;;;;;5047723;28;20057;-71
2021/12/27 06:19:10;;;;;;;10.00;4.05;;;-2.60;99.90;;;;;;5046062;28;20045;-72
2021/12/27 06:21:37;;;;;;;13.57;4.93;;;-2.60;99.90;;;;;;5039588;28;20089;-73
2021/12/27 06:24:03;;;;;;;13.90;4.63;;;-2.60;99.90;;;;;;5034171;28;20064;-73
2021/12/27 06:26:29;;;;;;;9.40;4.03;;;-2.50;99.90;;;;;;5042562;28;20061;-72
2021/12/27 06:28:54;;;;;;;9.85;3.88;;;-2.50;99.90;;;;;;5036212;28;20025;-72
2021/12/27 06:31:20;;;;;;;11.98;4.43;;;-2.40;99.90;;;;;;5031072;28;20045;-71
2021/12/27 06:33:46;;;;;;;17.30;5.32;;;-2.40;99.90;;;;;;5045381;28;20033;-74
2021/12/27 06:36:12;;;;;;;26.35;4.65;;;-2.40;99.90;;;;;;5047346;28;20056;-73
2021/12/27 06:38:37;;;;;;;10.40;4.13;;;-2.40;99.90;;;;;;5047114;28;20041;-73
2021/12/27 06:41:03;;;;;;;22.70;5.63;;;-2.30;99.90;;;;;;5046770;28;20444;-73
2021/12/27 06:43:30;;;;;;;10.60;4.40;;;-2.30;99.90;;;;;;5047129;28;20041;-72
2021/12/27 06:45:58;;;;;;;16.15;5.50;;;-2.30;99.90;;;;;;5045195;28;20393;-73
2021/12/27 06:48:24;;;;;;;17.40;5.28;;;-2.20;99.90;;;;;;5047116;28;20033;-73
2021/12/27 06:50:50;;;;;;;17.00;4.72;;;-2.20;99.90;;;;;;5046353;28;20024;-74
2021/12/27 06:53:16;;;;;;;12.32;4.40;;;-2.10;99.90;;;;;;5046867;28;20068;-72
2021/12/27 06:55:44;;;;;;;11.73;4.55;;;-2.10;99.90;;;;;;5045662;28;20037;-73
2021/12/27 06:58:09;;;;;;;14.27;5.50;;;-2.10;99.90;;;;;;5041402;28;20061;-72
2021/12/27 07:00:39;;;;;;;15.02;5.93;;;-2.00;99.90;;;;;;5044689;28;20037;-72
2021/12/27 07:03:04;;;;;;;13.13;4.63;;;-2.00;99.90;;;;;;5045411;28;20029;-73
2021/12/27 07:05:30;;;;;;;14.63;5.97;;;-2.00;99.90;;;;;;5046460;28;20497;-73
2021/12/27 07:07:56;;;;;;;12.98;4.95;;;-1.90;99.90;;;;;;5046053;28;20060;-73
2021/12/27 07:10:22;;;;;;;16.83;5.55;;;-1.90;99.90;;;;;;5045528;28;20087;-72
2021/12/27 07:12:48;;;;;;;9.15;4.10;;;-1.80;99.90;;;;;;5045340;28;20044;-72
2021/12/27 07:15:15;;;;;;;16.10;5.10;;;-1.80;99.90;;;;;;5046379;28;20026;-72
2021/12/27 07:17:41;;;;;;;15.38;5.63;;;-1.70;99.90;;;;;;5046834;28;20060;-72
2021/12/27 07:20:07;;;;;;;10.90;4.30;;;-1.70;99.90;;;;;;5045863;28;20038;-72
2021/12/27 07:22:33;;;;;;;12.50;5.07;;;-1.60;99.90;;;;;;5045138;28;20091;-72
2021/12/27 07:24:59;;;;;;;14.25;4.32;;;-1.60;99.90;;;;;;5061898;28;20025;-72
2021/12/27 07:27:31;;;;;;;20.25;5.05;;;-1.60;99.90;;;;;;5060501;28;20036;-72
2021/12/27 07:29:57;;;;;;;16.98;5.93;;;-1.50;99.90;;;;;;5046273;28;20040;-72
2021/12/27 07:32:23;;;;;;;11.68;4.85;;;-1.50;99.90;;;;;;5046820;28;20029;-73
2021/12/27 07:34:49;;;;;;;9.38;4.63;;;-1.50;99.90;;;;;;5046245;28;20108;-73
2021/12/27 07:37:16;;;;;;;13.23;4.95;;;-1.40;99.90;;;;;;5046028;28;20017;-72
2021/12/27 07:39:43;;;;;;;15.35;4.72;;;-1.30;99.90;;;;;;5046117;28;20037;-73
2021/12/27 07:42:08;;;;;;;9.02;4.88;;;-1.20;99.90;;;;;;5046038;28;20482;-73
2021/12/27 07:44:34;;;;;;;9.98;4.90;;;-1.20;99.90;;;;;;5061210;28;20060;-73
2021/12/27 07:47:00;;;;;;;11.65;5.50;;;-1.20;99.90;;;;;;5046010;28;20476;-73
2021/12/27 07:49:26;;;;;;;16.35;5.82;;;-1.30;99.90;;;;;;5046067;28;20033;-74
2021/12/27 07:51:52;;;;;;;15.50;5.93;;;-1.20;99.90;;;;;;5045902;28;20075;-72
2021/12/27 07:54:17;;;;;;;13.30;4.93;;;-1.20;99.90;;;;;;5044807;28;20053;-73
2021/12/27 07:56:44;;;;;;;12.38;5.20;;;-1.10;99.90;;;;;;5042435;28;20108;-74
2021/12/27 07:59:10;;;;;;;10.55;4.13;;;-1.10;99.90;;;;;;5044037;28;20038;-74
2021/12/27 08:01:37;;;;;;;12.80;5.38;;;-1.10;99.90;;;;;;5043901;28;20028;-74
2021/12/27 08:04:05;;;;;;;12.77;5.40;;;-1.10;99.90;;;;;;5043450;28;20034;-73
2021/12/27 08:06:31;;;;;;;16.67;6.55;;;-1.10;99.90;;;;;;5044763;28;20100;-72
2021/12/27 08:08:57;;;;;;;18.35;6.15;;;-1.10;99.90;;;;;;5045098;28;20405;-74
2021/12/27 08:11:24;;;;;;;13.55;5.72;;;-1.00;99.90;;;;;;5043782;28;20485;-73
2021/12/27 08:13:50;;;;;;;20.88;6.65;;;-1.00;99.90;;;;;;5044329;28;20033;-72
2021/12/27 08:16:17;;;;;;;19.35;5.60;;;-1.00;99.90;;;;;;5043314;28;20029;-73
2021/12/27 08:18:46;;;;;;;13.05;5.72;;;-0.90;99.90;;;;;;5043079;28;20100;-73
2021/12/27 08:21:12;;;;;;;14.18;5.45;;;-0.90;99.90;;;;;;5041731;28;20029;-73
2021/12/27 08:23:38;;;;;;;15.40;6.22;;;-0.90;99.90;;;;;;5042721;28;20021;-73
2021/12/27 08:26:04;;;;;;;16.15;5.68;;;-0.80;99.90;;;;;;5040561;28;20029;-71
2021/12/27 08:28:31;;;;;;;20.38;5.75;;;-0.90;99.90;;;;;;5041018;28;20045;-73
2021/12/27 08:30:59;;;;;;;13.60;4.95;;;-0.90;99.90;;;;;;5044619;28;20022;-73
2021/12/27 08:33:24;;;;;;;18.95;6.30;;;-0.90;99.90;;;;;;5044334;28;20017;-73
2021/12/27 08:35:50;;;;;;;21.92;6.18;;;-0.90;99.90;;;;;;5043892;28;20075;-72
2021/12/27 08:38:18;;;;;;;20.58;6.45;;;-0.80;99.90;;;;;;5044112;28;20053;-72
2021/12/27 08:40:43;;;;;;;14.85;5.90;;;-0.80;99.90;;;;;;5040289;28;20037;-72
2021/12/27 08:43:09;;;;;;;19.70;6.50;;;-0.90;99.90;;;;;;5044184;28;20053;-72
2021/12/27 08:45:34;;;;;;;13.73;5.80;;;-0.80;99.90;;;;;;5044635;28;20021;-72
2021/12/27 08:48:01;;;;;;;15.65;5.65;;;-0.80;99.90;;;;;;5044933;28;20021;-73
2021/12/27 08:50:26;;;;;;;21.30;7.03;;;-0.70;99.90;;;;;;5043961;28;20473;-74
2021/12/27 08:52:53;;;;;;;16.60;6.43;;;-0.80;99.90;;;;;;5044098;28;20039;-73
2021/12/27 08:55:18;;;;;;;29.77;7.32;;;-0.80;99.90;;;;;;5043411;28;20033;-73
2021/12/27 08:57:44;;;;;;;19.30;5.95;;;-0.70;99.90;;;;;;5044708;28;20033;-74
2021/12/27 09:00:12;;;;;;;14.57;5.18;;;-0.70;99.90;;;;;;5043941;28;20044;-73
2021/12/27 09:02:38;;;;;;;10.75;5.20;;;-0.70;99.90;;;;;;5039191;28;20030;-73
2021/12/27 09:05:05;;;;;;;12.48;6.32;;;-0.70;99.90;;;;;;5044213;28;20089;-73
2021/12/27 09:07:32;;;;;;;16.10;5.80;;;-0.70;99.90;;;;;;5039358;28;20028;-73
2021/12/27 09:09:57;;;;;;;12.82;5.53;;;-0.70;99.90;;;;;;5044342;28;20060;-73
2021/12/27 09:12:23;;;;;;;20.85;5.13;;;-0.70;99.90;;;;;;5044501;28;20022;-72
2021/12/27 09:14:50;;;;;;;18.38;6.22;;;-0.70;99.90;;;;;;5043558;28;20021;-74
2021/12/27 09:17:16;;;;;;;15.85;5.13;;;-0.70;99.90;;;;;;5059690;28;20033;-73
2021/12/27 09:19:43;;;;;;;19.80;6.47;;;-0.60;99.90;;;;;;5044602;28;20037;-72
2021/12/27 09:22:10;;;;;;;13.40;5.90;;;-0.50;99.90;;;;;;5059810;28;20028;-73
2021/12/27 09:24:36;;;;;;;22.00;7.90;;;-0.50;99.90;;;;;;5063326;28;20045;-73
2021/12/27 09:27:02;;;;;;;18.83;6.97;;;-0.50;99.90;;;;;;5055828;28;20033;-74
2021/12/27 09:29:27;;;;;;;18.77;6.85;;;-0.40;99.90;;;;;;5047828;28;20056;-74
2021/12/27 09:31:53;;;;;;;15.07;5.68;;;-0.30;99.90;;;;;;5043965;28;20060;-74
2021/12/27 09:34:19;;;;;;;20.90;6.90;;;-0.30;99.90;;;;;;5046674;28;20041;-74
2021/12/27 09:36:45;;;;;;;22.73;7.38;;;-0.30;99.90;;;;;;5029897;28;20056;-73
2021/12/27 09:39:11;;;;;;;16.73;6.20;;;-0.20;99.90;;;;;;5047794;28;20050;-73
2021/12/27 09:41:37;;;;;;;14.35;6.22;;;-0.20;99.90;;;;;;5047906;28;20022;-73
2021/12/27 09:44:04;;;;;;;17.13;7.35;;;-0.20;99.90;;;;;;5046895;28;20036;-74
2021/12/27 09:46:31;;;;;;;17.02;7.25;;;-0.20;99.90;;;;;;5043765;28;20021;-74
2021/12/27 09:49:00;;;;;;;17.83;7.40;;;-0.20;99.90;;;;;;5044009;28;20031;-75
2021/12/27 09:51:30;;;;;;;15.68;6.57;;;-0.20;99.90;;;;;;5046149;28;20034;-73
2021/12/27 09:53:58;;;;;;;23.90;8.32;;;-0.10;99.90;;;;;;5036437;28;20539;-72
2021/12/27 09:56:24;;;;;;;19.17;6.60;;;-0.10;99.90;;;;;;5042066;28;20036;-74
2021/12/27 09:58:50;;;;;;;19.35;7.13;;;-0.10;99.90;;;;;;5041769;28;20081;-72
2021/12/27 10:01:16;;;;;;;13.88;6.00;;;0.00;99.90;;;;;;5045889;28;20488;-71
2021/12/27 10:03:57;;;;;;;13.68;6.78;;;0.00;99.90;;;;;;5046573;28;20083;-73
2021/12/27 10:06:25;;;;;;;23.98;7.15;;;0.00;99.90;;;;;;5047544;28;20075;-74
2021/12/27 10:08:56;;;;;;;19.60;6.47;;;0.00;99.90;;;;;;5025678;28;20061;-72
2021/12/27 10:11:29;;;;;;;20.00;7.35;;;0.00;99.90;;;;;;5046051;28;20026;-73
2021/12/27 10:13:59;;;;;;;21.10;7.75;;;0.00;99.90;;;;;;5047709;28;20049;-73
2021/12/27 10:16:29;;;;;;;20.33;7.68;;;0.10;99.90;;;;;;5047018;28;20088;-73
2021/12/27 10:19:01;;;;;;;17.42;7.38;;;0.00;99.90;;;;;;5047558;28;20025;-72
2021/12/27 10:21:28;;;;;;;22.30;8.65;;;0.10;99.90;;;;;;5047351;28;20033;-72
2021/12/27 10:24:02;;;;;;;18.70;7.55;;;0.00;99.90;;;;;;5047236;28;20029;-72
2021/12/27 10:26:31;;;;;;;19.52;6.30;;;0.10;99.90;;;;;;5047795;28;20032;-75
2021/12/27 10:29:30;;;;;;;28.08;8.45;;;0.10;99.90;;;;;;5046868;28;20469;-73
2021/12/27 10:31:59;;;;;;;25.20;7.72;;;0.10;99.90;;;;;;5022398;28;20038;-73
2021/12/27 10:34:29;;;;;;;22.52;7.53;;;0.10;99.90;;;;;;5028854;28;20026;-72
2021/12/27 10:37:05;;;;;;;20.95;8.40;;;0.10;99.90;;;;;;5045654;28;20045;-72
2021/12/27 10:39:55;;;;;;;15.50;7.40;;;0.00;99.90;;;;;;5045601;28;20087;-74
2021/12/27 10:42:24;;;;;;;23.13;6.95;;;0.10;99.90;;;;;;5062025;28;20033;-72
2021/12/27 10:44:53;;;;;;;19.55;8.13;;;0.10;99.90;;;;;;5045756;28;20034;-72
2021/12/27 10:47:31;;;;;;;21.35;7.30;;;0.10;99.90;;;;;;5044357;28;20421;-73
2021/12/27 10:50:03;;;;;;;10.35;4.88;;;0.10;99.90;;;;;;5046920;28;20044;-73
2021/12/27 10:52:58;;;;;;;22.15;8.00;;;0.10;99.90;;;;;;5046382;28;20029;-72
2021/12/27 10:55:37;;;;;;;16.27;5.30;;;0.10;99.90;;;;;;5047009;28;20052;-71
2021/12/27 10:58:25;;;;;;;21.80;7.97;;;0.10;99.90;;;;;;5044671;28;20029;-72
2021/12/27 11:01:01;;;;;;;25.67;7.63;;;0.10;99.90;;;;;;5040350;28;20093;-72
2021/12/27 11:03:39;;;;;;;19.67;7.20;;;0.10;99.90;;;;;;5045588;28;20087;-73
2021/12/27 11:06:07;;;;;;;21.33;7.30;;;0.10;99.90;;;;;;5045767;28;20030;-73
2021/12/27 11:08:35;;;;;;;22.58;8.93;;;0.20;99.90;;;;;;5045861;28;20132;-73
2021/12/27 11:11:01;;;;;;;21.48;7.60;;;0.10;99.90;;;;;;5045666;28;20569;-74
2021/12/27 11:13:28;;;;;;;21.83;8.60;;;0.10;99.90;;;;;;5044438;28;20036;-74
2021/12/27 11:15:54;;;;;;;29.00;9.38;;;0.20;99.90;;;;;;5044867;28;20053;-73
2021/12/27 11:18:21;;;;;;;30.08;8.45;;;0.20;99.90;;;;;;5043858;28;20060;-73
2021/12/27 11:20:56;;;;;;;19.88;7.38;;;0.20;99.90;;;;;;5045863;28;20029;-72
2021/12/27 11:23:24;;;;;;;20.02;8.50;;;0.20;99.90;;;;;;5043411;28;20033;-73
2021/12/27 11:26:07;;;;;;;25.02;9.20;;;0.20;99.90;;;;;;5041278;28;20087;-73
2021/12/27 11:28:36;;;;;;;14.93;6.43;;;0.20;99.90;;;;;;5041182;28;20103;-72
2021/12/27 11:31:13;;;;;;;20.40;7.50;;;0.20;99.90;;;;;;5026865;28;20058;-74
2021/12/27 11:34:12;;;;;;;21.42;6.43;;;0.30;99.90;;;;;;5036381;28;20098;-74
2021/12/27 11:36:41;;;;;;;19.48;7.65;;;0.30;99.90;;;;;;5030580;28;20046;-73
2021/12/27 11:39:22;;;;;;;24.40;9.52;;;0.30;99.90;;;;;;5036857;28;20042;-73
2021/12/27 11:41:57;;;;;;;22.40;9.60;;;0.40;99.90;;;;;;5034856;28;20069;-73
2021/12/27 11:44:38;;;;;;;23.73;6.95;;;0.40;99.90;;;;;;5037836;28;20916;-73
2021/12/27 11:47:06;;;;;;;18.10;7.30;;;0.40;99.90;;;;;;5044708;28;20105;-75
2021/12/27 11:49:54;;;;;;;13.13;4.88;;;0.50;99.90;;;;;;5043306;28;20338;-74
2021/12/27 11:52:25;;;;;;;15.65;5.40;;;0.50;99.90;;;;;;5041541;28;20097;-74
2021/12/27 11:55:22;;;;;;;18.92;7.70;;;0.50;99.90;;;;;;5033622;28;20033;-74
2021/12/27 11:57:56;;;;;;;19.67;8.13;;;0.50;99.90;;;;;;5040310;28;20048;-73
2021/12/27 12:00:26;;;;;;;21.67;8.23;;;0.50;99.90;;;;;;5035514;28;20062;-74
2021/12/27 12:03:04;;;;;;;16.92;7.13;;;0.60;99.90;;;;;;5034796;28;20049;-73
2021/12/27 12:05:44;;;;;;;22.40;9.70;;;0.50;99.90;;;;;;5066539;28;20029;-74
2021/12/27 12:08:18;;;;;;;25.13;9.00;;;0.50;99.90;;;;;;5039385;28;20072;-73
2021/12/27 12:10:55;;;;;;;15.55;7.38;;;0.50;99.90;;;;;;5036414;28;20022;-73
2021/12/27 12:13:27;;;;;;;25.25;9.80;;;0.50;99.90;;;;;;5034655;28;20037;-73
2021/12/27 12:16:04;;;;;;;15.57;6.60;;;0.50;99.90;;;;;;5041987;28;20026;-72
2021/12/27 12:18:31;;;;;;;22.83;10.27;;;0.60;99.90;;;;;;5044639;28;20041;-73
2021/12/27 12:21:02;;;;;;;24.40;9.68;;;0.60;99.90;;;;;;5043547;28;20048;-73
2021/12/27 12:23:34;;;;;;;22.83;8.50;;;0.60;99.90;;;;;;5045070;28;20032;-74
2021/12/27 12:26:03;;;;;;;28.60;9.15;;;0.70;99.90;;;;;;5044441;28;20053;-75
2021/12/27 12:28:30;;;;;;;22.58;8.98;;;0.70;99.90;;;;;;5043998;28;20032;-73
2021/12/27 12:30:57;;;;;;;26.02;9.77;;;0.70;99.90;;;;;;5044943;28;20437;-74
2021/12/27 12:33:29;;;;;;;21.45;8.43;;;0.70;99.90;;;;;;5045207;28;20025;-74
2021/12/27 12:35:57;;;;;;;17.20;7.82;;;0.70;99.90;;;;;;5044642;28;20034;-74
2021/12/27 12:38:29;;;;;;;26.67;8.25;;;0.70;99.90;;;;;;5043470;28;20036;-73
2021/12/27 12:41:00;;;;;;;27.95;8.07;;;0.70;99.90;;;;;;5045042;28;20063;-73
2021/12/27 12:43:32;;;;;;;18.45;8.15;;;0.70;99.90;;;;;;5044633;28;20029;-73
2021/12/27 12:45:58;;;;;;;28.98;9.27;;;0.80;99.90;;;;;;5044744;28;20049;-74
2021/12/27 12:48:28;;;;;;;25.00;7.93;;;0.90;99.90;;;;;;5044468;28;20104;-74
2021/12/27 12:50:54;;;;;;;20.02;8.88;;;0.90;99.90;;;;;;5059342;28;20025;-74
2021/12/27 12:53:33;;;;;;;24.52;8.25;;;0.90;99.90;;;;;;5043289;28;20097;-73